TAR282 DTTA-LFBO
Flight info
| Callsign | TAR282 |
|---|---|
| Flight time | 1h 37m |
| Altitude | 36000 |
| Route | TOBIB3C TOBIB UA725 OSMAR DCT LUNAM DCT ALG DCT GINOX DCT OKSER DCT AMFAC DCT FJR/N0330F180 G393 AFRIC |
| Aircraft | A20N/M-SDE2E3FGHIRWXY/LB1 |
Departure
| Time | 2026-05-04 20:45 |
|---|---|
| Airport | Tunis Carthage International Airport (DTTA) |
Arrival
| Time | 2026-05-04 22:22 |
|---|---|
| Airport | Toulouse-Blagnac Airport (LFBO) |
| Time | Latitude | Longitude | Altitude | Speed | Heading |
|---|---|---|---|---|---|
| 2026-05-04 20:44 | 36.93740 | 10.22363 | 5730 ft | 274 kts | 341° |
| 2026-05-04 20:45 | 36.95553 | 10.21721 | 6569 ft | 276 kts | 344° |
| 2026-05-04 20:45 | 36.97437 | 10.21147 | 7344 ft | 279 kts | 345° |
| 2026-05-04 20:45 | 36.99328 | 10.20582 | 8193 ft | 280 kts | 344° |
| 2026-05-04 20:45 | 37.01232 | 10.19988 | 9009 ft | 285 kts | 343° |
| 2026-05-04 20:46 | 37.03165 | 10.19350 | 9863 ft | 288 kts | 342° |
| 2026-05-04 20:46 | 37.05112 | 10.18675 | 10541 ft | 297 kts | 341° |
| 2026-05-04 20:46 | 37.07170 | 10.17936 | 10852 ft | 319 kts | 341° |
| 2026-05-04 20:46 | 37.09362 | 10.17135 | 11332 ft | 333 kts | 341° |
| 2026-05-04 20:47 | 37.11610 | 10.16314 | 12082 ft | 339 kts | 341° |
| 2026-05-04 20:47 | 37.13884 | 10.15487 | 12881 ft | 342 kts | 341° |
| 2026-05-04 20:47 | 37.16186 | 10.14652 | 13677 ft | 346 kts | 340° |
| 2026-05-04 20:47 | 37.18508 | 10.13811 | 14381 ft | 349 kts | 340° |
| 2026-05-04 20:48 | 37.20852 | 10.12961 | 15051 ft | 353 kts | 340° |
| 2026-05-04 20:48 | 37.23228 | 10.12100 | 15729 ft | 357 kts | 340° |
| 2026-05-04 20:48 | 37.25594 | 10.11241 | 16409 ft | 360 kts | 340° |
| 2026-05-04 20:48 | 37.28011 | 10.10363 | 17081 ft | 363 kts | 340° |
| 2026-05-04 20:49 | 37.30447 | 10.09478 | 17786 ft | 366 kts | 340° |
| 2026-05-04 20:49 | 37.32907 | 10.08584 | 18453 ft | 369 kts | 340° |
| 2026-05-04 20:49 | 37.35391 | 10.07679 | 19015 ft | 373 kts | 340° |
| 2026-05-04 20:49 | 37.37898 | 10.06765 | 19577 ft | 377 kts | 340° |
| 2026-05-04 20:50 | 37.40428 | 10.05855 | 20137 ft | 380 kts | 341° |
| 2026-05-04 20:50 | 37.43003 | 10.04991 | 20691 ft | 384 kts | 342° |
| 2026-05-04 20:50 | 37.45606 | 10.04160 | 21239 ft | 387 kts | 342° |
| 2026-05-04 20:50 | 37.48235 | 10.03340 | 21780 ft | 391 kts | 342° |
| 2026-05-04 20:51 | 37.50891 | 10.02515 | 22317 ft | 394 kts | 342° |
| 2026-05-04 20:51 | 37.53528 | 10.01694 | 22851 ft | 397 kts | 342° |
| 2026-05-04 20:51 | 37.56211 | 10.00853 | 23400 ft | 399 kts | 342° |
| 2026-05-04 20:51 | 37.58920 | 9.99999 | 23872 ft | 403 kts | 342° |
| 2026-05-04 20:52 | 37.61651 | 9.99133 | 24291 ft | 406 kts | 342° |
| 2026-05-04 20:52 | 37.64396 | 9.98261 | 24719 ft | 409 kts | 342° |
| 2026-05-04 20:52 | 37.67169 | 9.97379 | 25135 ft | 412 kts | 342° |
| 2026-05-04 20:52 | 37.69957 | 9.96491 | 25550 ft | 414 kts | 342° |
| 2026-05-04 20:53 | 37.72762 | 9.95597 | 25949 ft | 417 kts | 342° |
| 2026-05-04 20:53 | 37.75589 | 9.94696 | 26331 ft | 420 kts | 341° |
| 2026-05-04 20:53 | 37.78430 | 9.93791 | 26733 ft | 422 kts | 341° |
| 2026-05-04 20:53 | 37.81287 | 9.92882 | 27115 ft | 425 kts | 341° |
| 2026-05-04 20:54 | 37.84159 | 9.91967 | 27484 ft | 427 kts | 341° |
| 2026-05-04 20:54 | 37.87057 | 9.91043 | 27843 ft | 430 kts | 341° |
| 2026-05-04 20:54 | 37.89965 | 9.90115 | 28197 ft | 432 kts | 341° |
| 2026-05-04 20:54 | 37.92846 | 9.89195 | 28545 ft | 434 kts | 341° |
| 2026-05-04 20:55 | 37.95791 | 9.88254 | 28886 ft | 437 kts | 341° |
| 2026-05-04 20:55 | 37.98748 | 9.87308 | 29234 ft | 439 kts | 341° |
| 2026-05-04 20:55 | 38.01716 | 9.86358 | 29568 ft | 442 kts | 341° |
| 2026-05-04 20:55 | 38.04704 | 9.85400 | 29893 ft | 444 kts | 341° |
| 2026-05-04 20:56 | 38.07710 | 9.84436 | 30206 ft | 446 kts | 341° |
| 2026-05-04 20:56 | 38.10731 | 9.83466 | 30478 ft | 448 kts | 341° |
| 2026-05-04 20:56 | 38.13768 | 9.82491 | 30783 ft | 449 kts | 340° |
| 2026-05-04 20:56 | 38.16799 | 9.81518 | 31150 ft | 449 kts | 340° |
| 2026-05-04 20:57 | 38.19817 | 9.80549 | 31555 ft | 447 kts | 340° |
| 2026-05-04 20:57 | 38.22825 | 9.79581 | 31951 ft | 445 kts | 339° |
| 2026-05-04 20:57 | 38.25743 | 9.78374 | 32342 ft | 438 kts | 332° |
| 2026-05-04 20:57 | 38.28535 | 9.76868 | 32732 ft | 434 kts | 330° |
| 2026-05-04 20:58 | 38.31251 | 9.75320 | 33075 ft | 432 kts | 329° |
| 2026-05-04 20:58 | 38.34015 | 9.73690 | 33418 ft | 431 kts | 328° |
| 2026-05-04 20:58 | 38.36693 | 9.72082 | 33741 ft | 430 kts | 328° |
| 2026-05-04 20:58 | 38.39394 | 9.70450 | 34060 ft | 429 kts | 328° |
| 2026-05-04 20:59 | 38.42086 | 9.68823 | 34335 ft | 428 kts | 328° |
| 2026-05-04 20:59 | 38.44777 | 9.67199 | 34622 ft | 427 kts | 328° |
| 2026-05-04 20:59 | 38.47459 | 9.65584 | 34900 ft | 425 kts | 328° |
| 2026-05-04 20:59 | 38.50131 | 9.63977 | 35183 ft | 424 kts | 328° |
| 2026-05-04 21:00 | 38.52807 | 9.62367 | 35386 ft | 424 kts | 328° |
| 2026-05-04 21:00 | 38.55476 | 9.60761 | 35604 ft | 424 kts | 328° |
| 2026-05-04 21:00 | 38.58142 | 9.59157 | 35872 ft | 422 kts | 328° |
| 2026-05-04 21:00 | 38.60797 | 9.57558 | 36042 ft | 423 kts | 328° |
| 2026-05-04 21:01 | 38.66136 | 9.54335 | 36064 ft | 423 kts | 328° |
| 2026-05-04 21:01 | 38.71453 | 9.51124 | 36062 ft | 422 kts | 328° |
| 2026-05-04 21:02 | 38.76730 | 9.47930 | 36062 ft | 422 kts | 328° |
| 2026-05-04 21:02 | 38.82045 | 9.44707 | 36061 ft | 421 kts | 328° |
| 2026-05-04 21:03 | 38.87342 | 9.41491 | 36061 ft | 421 kts | 328° |
| 2026-05-04 21:03 | 38.92645 | 9.38265 | 36063 ft | 421 kts | 328° |
| 2026-05-04 21:04 | 38.97898 | 9.35065 | 36081 ft | 421 kts | 328° |
| 2026-05-04 21:04 | 39.03187 | 9.31837 | 36064 ft | 420 kts | 328° |
| 2026-05-04 21:05 | 39.08465 | 9.28610 | 36067 ft | 420 kts | 328° |
| 2026-05-04 21:05 | 39.13749 | 9.25375 | 36072 ft | 420 kts | 328° |
| 2026-05-04 21:06 | 39.19047 | 9.22126 | 36073 ft | 420 kts | 328° |
| 2026-05-04 21:06 | 39.24318 | 9.18888 | 36078 ft | 420 kts | 328° |
| 2026-05-04 21:07 | 39.29577 | 9.15651 | 36076 ft | 420 kts | 328° |
| 2026-05-04 21:07 | 39.34817 | 9.12421 | 36061 ft | 420 kts | 328° |
| 2026-05-04 21:08 | 39.40093 | 9.09163 | 36064 ft | 420 kts | 328° |
| 2026-05-04 21:08 | 39.45367 | 9.05902 | 36082 ft | 420 kts | 328° |
| 2026-05-04 21:09 | 39.50649 | 9.02629 | 36074 ft | 421 kts | 328° |
| 2026-05-04 21:09 | 39.55923 | 8.99356 | 36070 ft | 421 kts | 328° |
| 2026-05-04 21:10 | 39.61203 | 8.96073 | 36074 ft | 421 kts | 328° |
| 2026-05-04 21:10 | 39.66409 | 8.92625 | 36067 ft | 419 kts | 326° |
| 2026-05-04 21:11 | 39.71505 | 8.89048 | 36071 ft | 419 kts | 325° |
| 2026-05-04 21:11 | 39.76641 | 8.85425 | 36069 ft | 420 kts | 325° |
| 2026-05-04 21:12 | 39.81787 | 8.81816 | 36067 ft | 420 kts | 325° |
| 2026-05-04 21:12 | 39.86933 | 8.78215 | 36058 ft | 420 kts | 325° |
| 2026-05-04 21:13 | 39.92083 | 8.74607 | 36059 ft | 420 kts | 325° |
| 2026-05-04 21:13 | 39.97232 | 8.70993 | 36074 ft | 421 kts | 325° |
| 2026-05-04 21:14 | 40.02385 | 8.67369 | 36055 ft | 421 kts | 325° |
| 2026-05-04 21:14 | 40.07535 | 8.63742 | 36050 ft | 420 kts | 325° |
| 2026-05-04 21:15 | 40.12643 | 8.60138 | 36046 ft | 420 kts | 324° |
| 2026-05-04 21:15 | 40.17786 | 8.56502 | 36045 ft | 420 kts | 324° |
| 2026-05-04 21:16 | 40.22941 | 8.52851 | 36045 ft | 421 kts | 324° |
| 2026-05-04 21:16 | 40.28095 | 8.49195 | 36040 ft | 421 kts | 324° |
| 2026-05-04 21:17 | 40.33246 | 8.45536 | 36040 ft | 421 kts | 324° |
| 2026-05-04 21:17 | 40.38391 | 8.41874 | 36045 ft | 420 kts | 324° |
| 2026-05-04 21:18 | 40.43533 | 8.38207 | 36042 ft | 420 kts | 324° |
| 2026-05-04 21:18 | 40.48638 | 8.34559 | 36045 ft | 420 kts | 324° |
| 2026-05-04 21:19 | 40.53784 | 8.30877 | 36047 ft | 421 kts | 324° |
| 2026-05-04 21:19 | 40.58927 | 8.27190 | 36048 ft | 421 kts | 324° |
| 2026-05-04 21:20 | 40.63878 | 8.23176 | 36056 ft | 414 kts | 316° |
| 2026-05-04 21:20 | 40.68465 | 8.18586 | 36045 ft | 414 kts | 315° |
| 2026-05-04 21:21 | 40.72982 | 8.13884 | 36042 ft | 413 kts | 314° |
| 2026-05-04 21:21 | 40.77461 | 8.09190 | 36036 ft | 413 kts | 314° |
| 2026-05-04 21:22 | 40.81969 | 8.04473 | 36024 ft | 413 kts | 314° |
| 2026-05-04 21:22 | 40.86373 | 7.99631 | 36029 ft | 408 kts | 308° |
| 2026-05-04 21:23 | 40.90351 | 7.94287 | 36021 ft | 408 kts | 306° |
| 2026-05-04 21:23 | 40.94250 | 7.88833 | 36015 ft | 408 kts | 306° |
| 2026-05-04 21:24 | 40.98138 | 7.83344 | 36017 ft | 408 kts | 306° |
| 2026-05-04 21:24 | 41.02024 | 7.77859 | 36012 ft | 409 kts | 306° |
| 2026-05-04 21:25 | 41.05914 | 7.72371 | 36007 ft | 408 kts | 306° |
| 2026-05-04 21:25 | 41.09806 | 7.66875 | 36029 ft | 409 kts | 306° |
| 2026-05-04 21:26 | 41.13693 | 7.61376 | 36004 ft | 409 kts | 306° |
| 2026-05-04 21:26 | 41.17567 | 7.55884 | 36005 ft | 410 kts | 305° |
| 2026-05-04 21:27 | 41.20831 | 7.51248 | 35998 ft | 410 kts | 305° |
| 2026-05-04 21:27 | 41.24697 | 7.45749 | 35998 ft | 410 kts | 305° |
| 2026-05-04 21:28 | 41.28590 | 7.40201 | 36000 ft | 410 kts | 305° |
| 2026-05-04 21:28 | 41.32479 | 7.34648 | 35998 ft | 410 kts | 305° |
| 2026-05-04 21:29 | 41.36370 | 7.29080 | 35994 ft | 412 kts | 305° |
| 2026-05-04 21:29 | 41.40274 | 7.23481 | 35993 ft | 413 kts | 305° |
| 2026-05-04 21:30 | 41.44181 | 7.17872 | 35993 ft | 413 kts | 305° |
| 2026-05-04 21:30 | 41.48716 | 7.11348 | 35988 ft | 413 kts | 305° |
| 2026-05-04 21:31 | 41.53936 | 7.03820 | 35985 ft | 413 kts | 305° |
| 2026-05-04 21:32 | 41.57807 | 6.98222 | 35986 ft | 413 kts | 305° |
| 2026-05-04 21:32 | 41.61717 | 6.92557 | 35980 ft | 416 kts | 305° |
| 2026-05-04 21:33 | 41.65636 | 6.86869 | 35974 ft | 416 kts | 305° |
| 2026-05-04 21:33 | 41.69562 | 6.81164 | 35969 ft | 416 kts | 305° |
| 2026-05-04 21:34 | 41.73484 | 6.75450 | 35970 ft | 417 kts | 305° |
| 2026-05-04 21:34 | 41.77411 | 6.69719 | 35982 ft | 417 kts | 305° |
| 2026-05-04 21:35 | 41.81310 | 6.64015 | 35981 ft | 418 kts | 305° |
| 2026-05-04 21:35 | 41.85231 | 6.58267 | 35971 ft | 419 kts | 305° |
| 2026-05-04 21:36 | 41.89175 | 6.52477 | 35968 ft | 419 kts | 305° |
| 2026-05-04 21:36 | 41.93108 | 6.46693 | 35966 ft | 419 kts | 305° |
| 2026-05-04 21:37 | 41.97044 | 6.40888 | 35970 ft | 422 kts | 306° |
| 2026-05-04 21:37 | 42.00997 | 6.35049 | 35963 ft | 422 kts | 306° |
| 2026-05-04 21:38 | 42.04963 | 6.29200 | 35968 ft | 423 kts | 306° |
| 2026-05-04 21:38 | 42.08905 | 6.23385 | 35960 ft | 423 kts | 306° |
| 2026-05-04 21:39 | 42.12878 | 6.17514 | 35966 ft | 423 kts | 306° |
| 2026-05-04 21:39 | 42.16836 | 6.11651 | 35966 ft | 423 kts | 306° |
| 2026-05-04 21:40 | 42.20796 | 6.05771 | 35972 ft | 424 kts | 306° |
| 2026-05-04 21:40 | 42.24770 | 5.99856 | 35964 ft | 426 kts | 306° |
| 2026-05-04 21:41 | 42.28746 | 5.93930 | 35959 ft | 426 kts | 306° |
| 2026-05-04 21:41 | 42.32706 | 5.88015 | 35957 ft | 427 kts | 306° |
| 2026-05-04 21:42 | 42.36694 | 5.82046 | 35954 ft | 427 kts | 306° |
| 2026-05-04 21:42 | 42.40674 | 5.76078 | 35960 ft | 427 kts | 306° |
| 2026-05-04 21:43 | 42.44651 | 5.70097 | 35973 ft | 427 kts | 306° |
| 2026-05-04 21:43 | 42.48637 | 5.64093 | 35965 ft | 429 kts | 306° |
| 2026-05-04 21:44 | 42.52626 | 5.58075 | 35958 ft | 430 kts | 306° |
| 2026-05-04 21:44 | 42.56619 | 5.52039 | 35961 ft | 430 kts | 306° |
| 2026-05-04 21:45 | 42.60611 | 5.45991 | 35954 ft | 430 kts | 306° |
| 2026-05-04 21:45 | 42.64574 | 5.39974 | 35954 ft | 430 kts | 306° |
| 2026-05-04 21:46 | 42.68553 | 5.33918 | 35960 ft | 430 kts | 306° |
| 2026-05-04 21:46 | 42.72537 | 5.27842 | 35956 ft | 431 kts | 306° |
| 2026-05-04 21:47 | 42.76530 | 5.21740 | 35953 ft | 432 kts | 306° |
| 2026-05-04 21:47 | 42.80520 | 5.15631 | 35952 ft | 431 kts | 306° |
| 2026-05-04 21:48 | 42.84511 | 5.09508 | 35952 ft | 431 kts | 305° |
| 2026-05-04 21:48 | 42.88497 | 5.03402 | 35952 ft | 431 kts | 306° |
| 2026-05-04 21:49 | 42.92536 | 4.97319 | 35953 ft | 432 kts | 306° |
| 2026-05-04 21:49 | 42.96586 | 4.91244 | 35949 ft | 433 kts | 306° |
| 2026-05-04 21:50 | 43.00618 | 4.85175 | 35941 ft | 434 kts | 306° |
| 2026-05-04 21:50 | 43.04671 | 4.79058 | 35939 ft | 434 kts | 306° |
| 2026-05-04 21:51 | 43.08716 | 4.72931 | 35942 ft | 434 kts | 306° |
| 2026-05-04 21:51 | 43.12757 | 4.66799 | 35937 ft | 434 kts | 306° |
| 2026-05-04 21:52 | 43.16808 | 4.60638 | 35936 ft | 435 kts | 306° |
| 2026-05-04 21:52 | 43.20856 | 4.54467 | 35942 ft | 436 kts | 306° |
| 2026-05-04 21:53 | 43.24922 | 4.48257 | 35944 ft | 438 kts | 306° |
| 2026-05-04 21:53 | 43.28988 | 4.42034 | 35939 ft | 438 kts | 306° |
| 2026-05-04 21:54 | 43.33050 | 4.35806 | 35935 ft | 438 kts | 306° |
| 2026-05-04 21:54 | 43.37092 | 4.29594 | 35936 ft | 438 kts | 306° |
| 2026-05-04 21:54 | 43.39123 | 4.26465 | 35804 ft | 438 kts | 306° |
| 2026-05-04 21:55 | 43.41151 | 4.23340 | 35563 ft | 438 kts | 306° |
| 2026-05-04 21:55 | 43.43184 | 4.20204 | 35313 ft | 439 kts | 306° |
| 2026-05-04 21:55 | 43.45213 | 4.17068 | 35102 ft | 440 kts | 306° |
| 2026-05-04 21:55 | 43.47244 | 4.13926 | 34852 ft | 440 kts | 306° |
| 2026-05-04 21:56 | 43.49286 | 4.10765 | 34614 ft | 441 kts | 306° |
| 2026-05-04 21:56 | 43.51327 | 4.07601 | 34374 ft | 442 kts | 306° |
| 2026-05-04 21:56 | 43.53363 | 4.04443 | 34134 ft | 442 kts | 306° |
| 2026-05-04 21:56 | 43.55379 | 4.01235 | 33891 ft | 438 kts | 302° |
| 2026-05-04 21:57 | 43.57055 | 3.97801 | 33636 ft | 430 kts | 292° |
| 2026-05-04 21:57 | 43.58278 | 3.94114 | 33360 ft | 422 kts | 283° |
| 2026-05-04 21:57 | 43.59159 | 3.90264 | 33098 ft | 419 kts | 280° |
| 2026-05-04 21:57 | 43.59928 | 3.86386 | 32845 ft | 418 kts | 279° |
| 2026-05-04 21:58 | 43.60632 | 3.82515 | 32571 ft | 416 kts | 278° |
| 2026-05-04 21:58 | 43.61310 | 3.78630 | 32335 ft | 415 kts | 278° |
| 2026-05-04 21:58 | 43.61978 | 3.74757 | 32082 ft | 416 kts | 278° |
| 2026-05-04 21:58 | 43.62651 | 3.70872 | 31838 ft | 415 kts | 278° |
| 2026-05-04 21:59 | 43.63327 | 3.67002 | 31588 ft | 414 kts | 278° |
| 2026-05-04 21:59 | 43.64005 | 3.63143 | 31329 ft | 413 kts | 279° |
| 2026-05-04 21:59 | 43.64686 | 3.59292 | 31078 ft | 413 kts | 279° |
| 2026-05-04 21:59 | 43.65371 | 3.55430 | 30818 ft | 412 kts | 279° |
| 2026-05-04 22:00 | 43.66052 | 3.51605 | 30568 ft | 412 kts | 279° |
| 2026-05-04 22:00 | 43.66738 | 3.47763 | 30328 ft | 411 kts | 279° |
| 2026-05-04 22:00 | 43.67423 | 3.43935 | 30084 ft | 410 kts | 279° |
| 2026-05-04 22:00 | 43.68105 | 3.40113 | 29813 ft | 409 kts | 279° |
| 2026-05-04 22:01 | 43.68784 | 3.36302 | 29527 ft | 408 kts | 279° |
| 2026-05-04 22:01 | 43.69456 | 3.32525 | 29170 ft | 402 kts | 279° |
| 2026-05-04 22:01 | 43.70111 | 3.28830 | 28670 ft | 400 kts | 279° |
| 2026-05-04 22:01 | 43.70769 | 3.25102 | 28152 ft | 399 kts | 279° |
| 2026-05-04 22:02 | 43.71426 | 3.21372 | 27631 ft | 398 kts | 279° |
| 2026-05-04 22:02 | 43.72077 | 3.17666 | 27121 ft | 397 kts | 279° |
| 2026-05-04 22:02 | 43.72726 | 3.13960 | 26596 ft | 397 kts | 279° |
| 2026-05-04 22:02 | 43.73376 | 3.10248 | 26067 ft | 397 kts | 279° |
| 2026-05-04 22:03 | 43.74024 | 3.06538 | 25540 ft | 396 kts | 280° |
| 2026-05-04 22:03 | 43.74667 | 3.02845 | 25023 ft | 395 kts | 281° |
| 2026-05-04 22:03 | 43.75312 | 2.99138 | 24503 ft | 395 kts | 281° |
| 2026-05-04 22:03 | 43.75951 | 2.95454 | 23971 ft | 395 kts | 281° |
| 2026-05-04 22:04 | 43.76590 | 2.91753 | 23425 ft | 395 kts | 281° |
| 2026-05-04 22:04 | 43.76971 | 2.88029 | 22905 ft | 388 kts | 268° |
| 2026-05-04 22:04 | 43.76669 | 2.84351 | 22350 ft | 383 kts | 255° |
| 2026-05-04 22:04 | 43.76008 | 2.80795 | 21843 ft | 378 kts | 252° |
| 2026-05-04 22:05 | 43.75278 | 2.77340 | 21252 ft | 371 kts | 251° |
| 2026-05-04 22:05 | 43.74539 | 2.73963 | 20767 ft | 362 kts | 251° |
| 2026-05-04 22:05 | 43.73813 | 2.70680 | 20277 ft | 352 kts | 251° |
| 2026-05-04 22:05 | 43.73110 | 2.67513 | 19799 ft | 347 kts | 250° |
| 2026-05-04 22:06 | 43.72399 | 2.64328 | 19319 ft | 346 kts | 250° |
| 2026-05-04 22:06 | 43.71688 | 2.61148 | 18820 ft | 346 kts | 250° |
| 2026-05-04 22:06 | 43.70977 | 2.57976 | 18351 ft | 345 kts | 250° |
| 2026-05-04 22:06 | 43.70267 | 2.54809 | 17807 ft | 345 kts | 249° |
| 2026-05-04 22:07 | 43.69558 | 2.51651 | 17315 ft | 342 kts | 249° |
| 2026-05-04 22:07 | 43.68856 | 2.48524 | 16832 ft | 339 kts | 249° |
| 2026-05-04 22:07 | 43.68158 | 2.45423 | 16346 ft | 337 kts | 250° |
| 2026-05-04 22:07 | 43.67462 | 2.42335 | 15879 ft | 335 kts | 249° |
| 2026-05-04 22:08 | 43.66769 | 2.39267 | 15395 ft | 334 kts | 249° |
| 2026-05-04 22:08 | 43.66078 | 2.36208 | 14914 ft | 330 kts | 249° |
| 2026-05-04 22:08 | 43.65399 | 2.33209 | 14454 ft | 323 kts | 250° |
| 2026-05-04 22:08 | 43.64730 | 2.30272 | 13989 ft | 318 kts | 250° |
| 2026-05-04 22:09 | 43.64075 | 2.27391 | 13524 ft | 312 kts | 251° |
| 2026-05-04 22:09 | 43.63434 | 2.24568 | 13058 ft | 305 kts | 251° |
| 2026-05-04 22:09 | 43.62817 | 2.21850 | 12626 ft | 297 kts | 251° |
| 2026-05-04 22:09 | 43.62204 | 2.19162 | 12213 ft | 291 kts | 252° |
| 2026-05-04 22:10 | 43.61603 | 2.16527 | 11787 ft | 286 kts | 252° |
| 2026-05-04 22:10 | 43.61010 | 2.13933 | 11378 ft | 280 kts | 252° |
| 2026-05-04 22:10 | 43.60424 | 2.11375 | 10988 ft | 279 kts | 253° |
| 2026-05-04 22:10 | 43.59839 | 2.08821 | 10584 ft | 280 kts | 253° |
| 2026-05-04 22:11 | 43.59251 | 2.06255 | 10300 ft | 276 kts | 254° |
| 2026-05-04 22:11 | 43.58679 | 2.03766 | 10090 ft | 271 kts | 254° |
| 2026-05-04 22:11 | 43.58105 | 2.01267 | 9653 ft | 276 kts | 253° |
| 2026-05-04 22:11 | 43.57526 | 1.98742 | 9245 ft | 277 kts | 254° |
| 2026-05-04 22:12 | 43.56943 | 1.96215 | 8857 ft | 275 kts | 254° |
| 2026-05-04 22:12 | 43.56375 | 1.93748 | 8499 ft | 272 kts | 255° |
| 2026-05-04 22:12 | 43.55800 | 1.91263 | 8124 ft | 272 kts | 255° |
| 2026-05-04 22:12 | 43.55224 | 1.88785 | 7822 ft | 270 kts | 253° |
| 2026-05-04 22:13 | 43.54652 | 1.86321 | 7475 ft | 269 kts | 254° |
| 2026-05-04 22:13 | 43.54079 | 1.83852 | 7130 ft | 271 kts | 253° |
| 2026-05-04 22:13 | 43.53505 | 1.81394 | 6817 ft | 270 kts | 255° |
| 2026-05-04 22:13 | 43.52934 | 1.78940 | 6532 ft | 268 kts | 254° |
| 2026-05-04 22:14 | 43.52360 | 1.76509 | 6051 ft | 267 kts | 255° |
| 2026-05-04 22:14 | 43.51988 | 1.74888 | 5735 ft | 265 kts | 255° |
| 2026-05-04 22:14 | 43.51435 | 1.72486 | 5239 ft | 260 kts | 254° |
| 2026-05-04 22:14 | 43.50894 | 1.70149 | 4883 ft | 252 kts | 254° |
| 2026-05-04 22:15 | 43.50364 | 1.67865 | 4529 ft | 250 kts | 254° |
| 2026-05-04 22:15 | 43.49835 | 1.65591 | 4219 ft | 247 kts | 255° |
| 2026-05-04 22:15 | 43.49323 | 1.63406 | 4148 ft | 233 kts | 254° |
| 2026-05-04 22:15 | 43.48840 | 1.61345 | 4058 ft | 220 kts | 255° |
| 2026-05-04 22:16 | 43.48381 | 1.59382 | 3993 ft | 209 kts | 255° |
| 2026-05-04 22:16 | 43.47944 | 1.57516 | 3693 ft | 204 kts | 255° |
| 2026-05-04 22:16 | 43.47519 | 1.55671 | 3378 ft | 199 kts | 257° |
| 2026-05-04 22:16 | 43.47444 | 1.53848 | 3114 ft | 186 kts | 290° |
| 2026-05-04 22:17 | 43.48055 | 1.52322 | 3004 ft | 183 kts | 306° |
| 2026-05-04 22:17 | 43.48870 | 1.50950 | 3003 ft | 187 kts | 312° |
| 2026-05-04 22:17 | 43.49833 | 1.49774 | 3002 ft | 188 kts | 320° |
| 2026-05-04 22:17 | 43.50854 | 1.48694 | 3001 ft | 173 kts | 320° |
| 2026-05-04 22:18 | 43.51743 | 1.47768 | 3001 ft | 152 kts | 321° |
| 2026-05-04 22:18 | 43.52557 | 1.46914 | 2877 ft | 144 kts | 320° |
| 2026-05-04 22:18 | 43.53340 | 1.46084 | 2666 ft | 140 kts | 320° |
| 2026-05-04 22:18 | 43.54109 | 1.45288 | 2502 ft | 137 kts | 320° |
| 2026-05-04 22:19 | 43.54871 | 1.44499 | 2291 ft | 137 kts | 319° |
| 2026-05-04 22:19 | 43.55594 | 1.43751 | 2100 ft | 124 kts | 318° |
| 2026-05-04 22:19 | 43.56266 | 1.43052 | 1936 ft | 120 kts | 317° |
| 2026-05-04 22:19 | 43.56940 | 1.42353 | 1774 ft | 122 kts | 317° |
| 2026-05-04 22:20 | 43.57621 | 1.41656 | 1591 ft | 123 kts | 320° |
| 2026-05-04 22:20 | 43.58316 | 1.40970 | 1433 ft | 124 kts | 319° |
| 2026-05-04 22:20 | 43.59021 | 1.40261 | 1332 ft | 126 kts | 316° |
| 2026-05-04 22:20 | 43.59722 | 1.39530 | 1182 ft | 126 kts | 317° |
| 2026-05-04 22:21 | 43.60415 | 1.38774 | 990 ft | 129 kts | 318° |
| 2026-05-04 22:21 | 43.61111 | 1.38031 | 723 ft | 127 kts | 317° |
| 2026-05-04 22:21 | 43.61833 | 1.37298 | 563 ft | 131 kts | 319° |
| 2026-05-04 22:21 | 43.62534 | 1.36556 | 491 ft | 119 kts | 319° |
| 2026-05-04 22:22 | 43.63066 | 1.35989 | 495 ft | 71 kts | 322° |
| 2026-05-04 22:22 | 43.63317 | 1.35730 | 497 ft | 20 kts | 321° |
| 2026-05-04 22:22 | 43.63433 | 1.35611 | 490 ft | 21 kts | 326° |
| 2026-05-04 22:22 | 43.63566 | 1.35539 | 497 ft | 20 kts | 358° |
| 2026-05-04 22:23 | 43.63661 | 1.35652 | 497 ft | 18 kts | 52° |
| 2026-05-04 22:23 | 43.63739 | 1.35792 | 497 ft | 18 kts | 52° |
| 2026-05-04 22:23 | 43.63813 | 1.35929 | 491 ft | 17 kts | 61° |
| 2026-05-04 22:23 | 43.63761 | 1.36050 | 491 ft | 16 kts | 143° |
| 2026-05-04 22:24 | 43.63664 | 1.36151 | 490 ft | 21 kts | 143° |
| 2026-05-04 22:24 | 43.63550 | 1.36269 | 494 ft | 20 kts | 143° |
| 2026-05-04 22:24 | 43.63438 | 1.36385 | 493 ft | 20 kts | 143° |
| 2026-05-04 22:24 | 43.63328 | 1.36500 | 493 ft | 20 kts | 143° |
| 2026-05-04 22:25 | 43.63258 | 1.36632 | 495 ft | 17 kts | 67° |
| 2026-05-04 22:25 | 43.63316 | 1.36772 | 497 ft | 16 kts | 53° |
| 2026-05-04 22:25 | 43.63340 | 1.36902 | 492 ft | 14 kts | 126° |
| 2026-05-04 22:25 | 43.63304 | 1.36960 | 497 ft | 1 kts | 130° |